Time;durP1;ratioP1;P1;durP2;ratioP2;P2;SDS_P1;SDS_P2;PMS_P1;PMS_P2;Temp;Humidity;BMP_temperature;BMP_pressure;BME280_temperature;BME280_humidity;BME280_pressure;Samples;Min_cycle;Max_cycle;Signal;HPM_P1;HPM_P2
2021/12/21 00:00:12;;;;;;;24.83;15.23;;;-0.10;99.90;;;;;;2081916;28;20029;-69
2021/12/21 00:01:13;;;;;;;22.90;15.25;;;-0.10;99.90;;;;;;2080634;28;20033;-69
2021/12/21 00:02:13;;;;;;;26.33;15.40;;;-0.10;99.90;;;;;;2080766;28;20369;-69
2021/12/21 00:03:14;;;;;;;24.40;16.13;;;-0.10;99.90;;;;;;2087575;28;20028;-69
2021/12/21 00:04:15;;;;;;;23.98;15.85;;;-0.10;99.90;;;;;;2088678;28;20064;-69
2021/12/21 00:05:19;;;;;;;28.48;17.75;;;-0.10;99.90;;;;;;2088551;28;20021;-69
2021/12/21 00:06:20;;;;;;;24.30;15.32;;;-0.10;99.90;;;;;;2088544;28;20074;-69
2021/12/21 00:07:21;;;;;;;23.40;14.85;;;-0.10;99.90;;;;;;2084860;28;20147;-69
2021/12/21 00:08:22;;;;;;;24.77;15.43;;;-0.10;99.90;;;;;;2079912;28;20481;-69
2021/12/21 00:09:22;;;;;;;24.73;15.48;;;-0.10;99.90;;;;;;2079200;28;20028;-69
2021/12/21 00:10:27;;;;;;;26.70;16.60;;;-0.10;99.90;;;;;;2079447;28;20021;-69
2021/12/21 00:11:27;;;;;;;22.63;15.15;;;-0.10;99.90;;;;;;2081971;28;20033;-69
2021/12/21 00:12:31;;;;;;;22.45;15.05;;;-0.10;99.90;;;;;;2075820;28;20052;-69
2021/12/21 00:14:47;;;;;;;22.27;14.73;;;-0.10;99.90;;;;;;2080142;28;20025;-69
2021/12/21 00:17:09;;;;;;;23.75;14.20;;;-0.10;99.90;;;;;;2088414;28;20029;-69
2021/12/21 00:21:35;;;;;;;27.60;15.52;;;-0.20;99.90;;;;;;2079686;28;20112;-68
2021/12/21 00:23:57;;;;;;;22.73;15.25;;;-0.20;99.90;;;;;;2083796;28;20021;-68
2021/12/21 00:24:58;;;;;;;27.17;15.02;;;-0.20;99.90;;;;;;2083407;28;20041;-68
2021/12/21 00:26:10;;;;;;;20.70;14.55;;;-0.20;99.90;;;;;;2079727;28;20063;-68
2021/12/21 00:27:10;;;;;;;23.02;14.32;;;-0.20;99.90;;;;;;2082683;28;20427;-68
2021/12/21 00:28:11;;;;;;;24.23;14.48;;;-0.20;99.90;;;;;;2079843;28;20132;-68
2021/12/21 00:29:12;;;;;;;21.02;13.82;;;-0.20;99.90;;;;;;2087108;28;20488;-68
2021/12/21 00:30:13;;;;;;;22.15;14.95;;;-0.20;99.90;;;;;;2082217;28;20029;-69
2021/12/21 00:31:15;;;;;;;21.25;14.32;;;-0.20;99.90;;;;;;2079489;28;20029;-68
2021/12/21 00:32:15;;;;;;;22.55;14.70;;;-0.20;99.90;;;;;;2085302;28;20031;-69
2021/12/21 00:33:17;;;;;;;23.50;15.90;;;-0.20;99.90;;;;;;2086796;28;20028;-69
2021/12/21 00:34:17;;;;;;;23.05;15.32;;;-0.20;99.90;;;;;;2088314;28;20025;-69
2021/12/21 00:35:18;;;;;;;20.73;13.70;;;-0.20;99.90;;;;;;2086780;28;20033;-69
2021/12/21 00:36:21;;;;;;;21.77;14.45;;;-0.20;99.90;;;;;;2079971;28;20567;-68
2021/12/21 00:37:22;;;;;;;24.35;15.77;;;-0.20;99.90;;;;;;2080055;28;20024;-69
2021/12/21 00:38:23;;;;;;;25.95;17.15;;;-0.30;99.90;;;;;;2079932;28;20022;-69
2021/12/21 00:39:24;;;;;;;22.00;15.05;;;-0.20;99.90;;;;;;2080429;28;20049;-69
2021/12/21 00:40:24;;;;;;;23.33;14.57;;;-0.30;99.90;;;;;;2079696;28;20033;-69
2021/12/21 00:41:25;;;;;;;25.55;15.48;;;-0.30;99.90;;;;;;2081951;28;20441;-68
2021/12/21 00:42:25;;;;;;;24.67;14.93;;;-0.30;99.90;;;;;;2088304;28;20100;-68
2021/12/21 00:43:26;;;;;;;21.95;14.45;;;-0.30;99.90;;;;;;2087666;28;20033;-69
2021/12/21 00:44:28;;;;;;;21.38;14.40;;;-0.30;99.90;;;;;;2088084;28;20032;-69
2021/12/21 00:45:28;;;;;;;26.30;15.38;;;-0.30;99.90;;;;;;2088295;28;20021;-69
2021/12/21 00:46:29;;;;;;;23.75;15.15;;;-0.30;99.90;;;;;;2088066;28;20036;-69
2021/12/21 00:47:30;;;;;;;23.23;15.50;;;-0.30;99.90;;;;;;2088311;28;20071;-68
2021/12/21 00:48:32;;;;;;;23.23;15.27;;;-0.30;99.90;;;;;;2087866;28;20021;-68
2021/12/21 00:49:35;;;;;;;26.23;15.45;;;-0.30;99.90;;;;;;2088457;28;21007;-69
2021/12/21 00:50:35;;;;;;;23.75;14.50;;;-0.30;99.90;;;;;;2081968;28;20030;-69
2021/12/21 00:51:36;;;;;;;21.25;14.18;;;-0.40;99.90;;;;;;2086059;28;20045;-69
2021/12/21 00:52:37;;;;;;;20.60;14.23;;;-0.40;99.90;;;;;;2088346;28;20086;-69
2021/12/21 00:53:39;;;;;;;23.20;14.90;;;-0.30;99.90;;;;;;2087527;28;20222;-69
2021/12/21 00:54:40;;;;;;;20.80;14.40;;;-0.40;99.90;;;;;;2088051;28;20017;-69
2021/12/21 00:55:41;;;;;;;24.85;15.55;;;-0.40;99.90;;;;;;2082867;28;20100;-69
2021/12/21 00:56:42;;;;;;;26.08;16.80;;;-0.40;99.90;;;;;;2087725;28;20071;-69
2021/12/21 00:57:43;;;;;;;28.20;18.05;;;-0.40;99.90;;;;;;2087997;28;20036;-69
2021/12/21 00:58:44;;;;;;;26.08;16.05;;;-0.40;99.90;;;;;;2088286;28;20021;-69
2021/12/21 00:59:44;;;;;;;25.98;15.30;;;-0.40;99.90;;;;;;2084118;28;20044;-69
2021/12/21 01:00:45;;;;;;;22.63;15.38;;;-0.40;99.90;;;;;;2080737;28;20026;-69
2021/12/21 01:01:46;;;;;;;23.08;15.30;;;-0.40;99.90;;;;;;2088083;28;20501;-69
2021/12/21 01:02:47;;;;;;;23.42;15.30;;;-0.40;99.90;;;;;;2087898;28;20033;-68
2021/12/21 01:03:51;;;;;;;26.08;16.92;;;-0.40;99.90;;;;;;2087386;28;20086;-69
2021/12/21 01:04:52;;;;;;;25.17;16.70;;;-0.40;99.90;;;;;;2081016;28;20033;-68
2021/12/21 01:06:01;;;;;;;27.75;17.30;;;-0.40;99.90;;;;;;2079724;28;20056;-69
2021/12/21 01:08:04;;;;;;;23.58;15.63;;;-0.50;99.90;;;;;;2080121;28;20068;-69
2021/12/21 01:10:46;;;;;;;20.55;14.32;;;-0.40;99.90;;;;;;2079212;28;20044;-69
2021/12/21 01:11:42;;;;;;;22.90;14.52;;;-0.40;99.90;;;;;;2071073;28;20030;-69
2021/12/21 01:16:07;;;;;;;23.60;14.90;;;-0.50;99.90;;;;;;2079277;28;20104;-69
2021/12/21 01:17:25;;;;;;;26.13;16.83;;;-0.50;99.90;;;;;;2079965;28;20038;-69
2021/12/21 01:18:34;;;;;;;22.90;15.18;;;-0.50;99.90;;;;;;2079456;28;20025;-69
2021/12/21 01:19:46;;;;;;;23.98;15.95;;;-0.50;99.90;;;;;;2079603;28;20028;-71
2021/12/21 01:23:15;;;;;;;25.23;17.00;;;-0.60;99.90;;;;;;2088153;28;20040;-68
2021/12/21 01:24:22;;;;;;;25.48;15.70;;;-0.60;99.90;;;;;;2087457;28;20036;-68
2021/12/21 01:29:10;;;;;;;21.67;14.30;;;-0.60;99.90;;;;;;2079633;28;20061;-69
2021/12/21 01:30:23;;;;;;;18.60;13.57;;;-0.60;99.90;;;;;;2080019;28;20045;-69
2021/12/21 01:31:50;;;;;;;23.42;15.65;;;-0.70;99.90;;;;;;2079455;28;20033;-68
2021/12/21 01:33:06;;;;;;;26.52;16.52;;;-0.60;99.90;;;;;;2087701;28;20102;-68
2021/12/21 01:34:35;;;;;;;29.90;18.23;;;-0.70;99.90;;;;;;2072045;28;20026;-69
2021/12/21 01:35:41;;;;;;;26.88;16.95;;;-0.70;99.90;;;;;;2079497;28;20057;-69
2021/12/21 01:36:55;;;;;;;26.83;16.40;;;-0.70;99.90;;;;;;2079437;28;20380;-68
2021/12/21 01:38:09;;;;;;;27.02;16.33;;;-0.70;99.90;;;;;;2079665;28;20449;-69
2021/12/21 01:41:55;;;;;;;26.92;17.50;;;-0.80;99.90;;;;;;2081332;28;20045;-69
2021/12/21 01:43:27;;;;;;;24.05;15.52;;;-0.80;99.90;;;;;;2077549;28;20439;-68
2021/12/21 01:44:22;;;;;;;24.23;15.90;;;-0.80;99.90;;;;;;2073778;28;20041;-69
2021/12/21 01:49:49;;;;;;;26.17;16.23;;;-0.90;99.90;;;;;;2069315;28;20482;-69
2021/12/21 01:50:50;;;;;;;28.15;16.80;;;-0.90;99.90;;;;;;2071702;28;20037;-68
2021/12/21 01:51:51;;;;;;;25.17;16.25;;;-0.80;99.90;;;;;;2070503;28;20025;-69
2021/12/21 01:52:51;;;;;;;28.33;16.73;;;-0.80;99.90;;;;;;2070216;28;20056;-69
2021/12/21 01:53:53;;;;;;;24.00;15.20;;;-0.80;99.90;;;;;;2072826;28;20030;-69
2021/12/21 01:54:54;;;;;;;26.50;16.90;;;-0.80;99.90;;;;;;2074166;28;20026;-68
2021/12/21 01:55:56;;;;;;;25.05;16.27;;;-0.80;99.90;;;;;;2079553;28;20014;-68
2021/12/21 01:56:57;;;;;;;23.92;15.85;;;-0.80;99.90;;;;;;2087869;28;20033;-68
2021/12/21 01:57:58;;;;;;;22.48;15.63;;;-0.80;99.90;;;;;;2087557;28;20029;-69
2021/12/21 01:58:58;;;;;;;27.13;16.52;;;-0.80;99.90;;;;;;2083312;28;20420;-68
2021/12/21 01:59:59;;;;;;;26.40;17.73;;;-0.80;99.90;;;;;;2080489;28;20045;-68
2021/12/21 02:01:05;;;;;;;24.10;17.55;;;-0.80;99.90;;;;;;2082138;28;20127;-69
2021/12/21 02:02:08;;;;;;;24.83;16.27;;;-0.80;99.90;;;;;;2087570;28;20543;-69
2021/12/21 02:03:09;;;;;;;23.30;16.70;;;-0.80;99.90;;;;;;2086300;28;20040;-69
2021/12/21 02:04:14;;;;;;;20.88;15.70;;;-0.80;99.90;;;;;;2084201;28;20099;-69
2021/12/21 02:05:15;;;;;;;24.48;16.65;;;-0.70;99.90;;;;;;2079744;28;20030;-69
2021/12/21 02:06:18;;;;;;;20.25;15.57;;;-0.80;99.90;;;;;;2079480;28;20025;-69
2021/12/21 02:07:19;;;;;;;26.17;16.90;;;-0.80;99.90;;;;;;2079906;28;20112;-69
2021/12/21 02:08:20;;;;;;;23.77;15.95;;;-0.80;99.90;;;;;;2087778;28;20028;-68
2021/12/21 02:09:25;;;;;;;24.33;16.65;;;-0.80;99.90;;;;;;2087809;28;20025;-69
2021/12/21 02:10:26;;;;;;;23.60;16.80;;;-0.80;99.90;;;;;;2085749;28;20079;-68
2021/12/21 02:11:26;;;;;;;23.75;16.17;;;-0.80;99.90;;;;;;2087913;28;20604;-68
2021/12/21 02:12:27;;;;;;;23.67;15.82;;;-0.80;99.90;;;;;;2076720;28;20034;-68
2021/12/21 02:13:32;;;;;;;23.80;16.55;;;-0.80;99.90;;;;;;2070718;28;20017;-68
2021/12/21 02:14:33;;;;;;;20.27;16.02;;;-0.80;99.90;;;;;;2074593;28;20513;-69
2021/12/21 02:15:34;;;;;;;25.42;16.75;;;-0.80;99.90;;;;;;2076191;28;20022;-68
2021/12/21 02:17:16;;;;;;;22.08;16.10;;;-0.80;99.90;;;;;;2087640;28;20090;-69
2021/12/21 02:19:40;;;;;;;23.73;16.15;;;-0.80;99.90;;;;;;2079462;28;20034;-69
2021/12/21 02:20:50;;;;;;;24.92;16.85;;;-0.80;99.90;;;;;;2077909;28;20030;-69
2021/12/21 02:21:54;;;;;;;23.98;15.90;;;-0.80;99.90;;;;;;2073568;28;20030;-69
2021/12/21 02:23:03;;;;;;;26.80;16.38;;;-0.80;99.90;;;;;;2072732;28;20026;-69
2021/12/21 02:24:13;;;;;;;26.15;15.65;;;-0.80;99.90;;;;;;2076675;28;20033;-69
2021/12/21 02:26:39;;;;;;;23.63;16.38;;;-0.80;99.90;;;;;;2079077;28;20136;-69
2021/12/21 02:27:55;;;;;;;24.88;15.40;;;-0.80;99.90;;;;;;2071575;28;20571;-69
2021/12/21 02:30:18;;;;;;;23.30;14.60;;;-0.80;99.90;;;;;;2087548;28;20029;-69
2021/12/21 02:31:19;;;;;;;25.63;15.07;;;-0.80;99.90;;;;;;2088673;28;20047;-69
2021/12/21 02:32:22;;;;;;;23.80;16.70;;;-0.80;99.90;;;;;;2089148;28;20048;-69
2021/12/21 02:33:25;;;;;;;23.30;15.30;;;-0.80;99.90;;;;;;2088483;28;20024;-68
2021/12/21 02:34:26;;;;;;;27.27;16.95;;;-0.80;99.90;;;;;;2083028;28;20031;-68
2021/12/21 02:35:26;;;;;;;20.95;15.80;;;-0.80;99.90;;;;;;2081063;28;20041;-68
2021/12/21 02:36:27;;;;;;;23.35;15.32;;;-0.80;99.90;;;;;;2080914;28;20033;-69
2021/12/21 02:37:28;;;;;;;23.60;16.52;;;-0.80;99.90;;;;;;2080945;28;20103;-69
2021/12/21 02:38:29;;;;;;;29.85;15.63;;;-0.80;99.90;;;;;;2085629;28;20021;-69
2021/12/21 02:39:30;;;;;;;26.15;16.70;;;-0.80;99.90;;;;;;2088782;28;20017;-68
2021/12/21 02:40:30;;;;;;;28.77;15.88;;;-0.80;99.90;;;;;;2088553;28;20039;-68
2021/12/21 02:41:32;;;;;;;24.42;15.25;;;-0.80;99.90;;;;;;2089164;28;20048;-68
2021/12/21 02:42:32;;;;;;;23.95;16.38;;;-0.80;99.90;;;;;;2084980;28;20034;-68
2021/12/21 02:43:35;;;;;;;26.50;16.45;;;-0.80;99.90;;;;;;2086914;28;20029;-69
2021/12/21 02:44:38;;;;;;;27.10;17.10;;;-0.80;99.90;;;;;;2088665;28;20354;-68
2021/12/21 02:45:39;;;;;;;23.15;16.23;;;-0.80;99.90;;;;;;2089084;28;20051;-69
2021/12/21 02:46:40;;;;;;;29.33;16.50;;;-0.80;99.90;;;;;;2089027;28;20028;-68
2021/12/21 02:47:41;;;;;;;22.42;16.30;;;-0.80;99.90;;;;;;2089367;28;20021;-68
2021/12/21 02:48:41;;;;;;;27.45;17.13;;;-0.80;99.90;;;;;;2088900;28;20025;-68
2021/12/21 02:49:42;;;;;;;28.98;16.65;;;-0.80;99.90;;;;;;2088916;28;20473;-68
2021/12/21 02:50:42;;;;;;;26.67;17.40;;;-0.80;99.90;;;;;;2080869;28;20484;-68
2021/12/21 02:51:45;;;;;;;26.45;17.00;;;-0.80;99.90;;;;;;2080606;28;20025;-69
2021/12/21 02:52:46;;;;;;;27.52;16.95;;;-0.80;99.90;;;;;;2081065;28;20025;-68
2021/12/21 02:53:47;;;;;;;26.38;16.65;;;-0.80;99.90;;;;;;2080277;28;20072;-68
2021/12/21 02:54:47;;;;;;;26.27;17.27;;;-0.80;99.90;;;;;;2080533;28;20105;-68
2021/12/21 02:55:48;;;;;;;24.95;16.65;;;-0.80;99.90;;;;;;2081416;28;20029;-68
2021/12/21 02:56:49;;;;;;;26.90;17.30;;;-0.80;99.90;;;;;;2089174;28;21010;-69
2021/12/21 02:57:49;;;;;;;25.35;16.08;;;-0.80;99.90;;;;;;2084966;28;20079;-69
2021/12/21 02:58:50;;;;;;;31.70;17.85;;;-0.80;99.90;;;;;;2079127;28;20024;-68
2021/12/21 02:59:50;;;;;;;26.20;15.77;;;-0.80;99.90;;;;;;2079588;28;20025;-68
2021/12/21 03:00:53;;;;;;;27.95;17.85;;;-0.80;99.90;;;;;;2083803;28;20434;-68
2021/12/21 03:01:54;;;;;;;20.98;14.95;;;-0.80;99.90;;;;;;2088918;28;20025;-68
2021/12/21 03:02:55;;;;;;;24.52;15.98;;;-0.80;99.90;;;;;;2081083;28;20117;-69
2021/12/21 03:03:56;;;;;;;23.77;15.68;;;-0.80;99.90;;;;;;2081500;28;20037;-68
2021/12/21 03:04:57;;;;;;;24.35;14.80;;;-0.80;99.90;;;;;;2090431;28;20017;-69
2021/12/21 03:05:59;;;;;;;28.73;17.33;;;-0.80;99.90;;;;;;2089397;28;20060;-69
2021/12/21 03:09:38;;;;;;;25.02;15.75;;;-0.80;99.90;;;;;;2090346;28;20074;-68
2021/12/21 03:10:32;;;;;;;25.23;16.70;;;-0.80;99.90;;;;;;2082921;28;20025;-69
2021/12/21 03:11:57;;;;;;;27.85;15.93;;;-0.80;99.90;;;;;;2082469;28;20030;-68
2021/12/21 03:14:16;;;;;;;29.85;17.23;;;-0.90;99.90;;;;;;2077842;28;20030;-68
2021/12/21 03:15:17;;;;;;;24.88;16.52;;;-0.90;99.90;;;;;;2070047;28;20030;-69
2021/12/21 03:16:18;;;;;;;28.45;17.75;;;-0.90;99.90;;;;;;2089267;28;20147;-69
2021/12/21 03:17:20;;;;;;;26.65;16.48;;;-0.90;99.90;;;;;;2083720;28;20025;-68
2021/12/21 03:18:20;;;;;;;27.70;17.40;;;-0.90;99.90;;;;;;2078469;28;20026;-68
2021/12/21 03:19:21;;;;;;;32.47;17.63;;;-0.90;99.90;;;;;;2076903;28;20022;-68
2021/12/21 03:20:22;;;;;;;26.48;16.25;;;-0.90;99.90;;;;;;2077950;28;20065;-69
2021/12/21 03:21:23;;;;;;;27.17;16.08;;;-0.90;99.90;;;;;;2077891;28;20084;-68
2021/12/21 03:22:23;;;;;;;25.98;16.05;;;-0.90;99.90;;;;;;2088175;28;20034;-68
2021/12/21 03:23:24;;;;;;;34.55;18.20;;;-0.90;99.90;;;;;;2081532;28;20104;-68
2021/12/21 03:24:24;;;;;;;29.75;18.10;;;-0.90;99.90;;;;;;2081772;28;20025;-68
2021/12/21 03:25:25;;;;;;;26.95;16.92;;;-0.90;99.90;;;;;;2082002;28;20461;-69
2021/12/21 03:26:26;;;;;;;25.00;16.48;;;-0.90;99.90;;;;;;2081683;28;20075;-69
2021/12/21 03:27:26;;;;;;;25.80;15.25;;;-0.90;99.90;;;;;;2084074;28;20032;-69
2021/12/21 03:28:27;;;;;;;26.48;16.25;;;-0.90;99.90;;;;;;2078805;28;20029;-69
2021/12/21 03:29:28;;;;;;;26.92;16.27;;;-0.90;99.90;;;;;;2089550;28;20033;-68
2021/12/21 03:30:28;;;;;;;28.65;17.17;;;-0.90;99.90;;;;;;2084704;28;20030;-69
2021/12/21 03:31:29;;;;;;;30.05;16.10;;;-0.90;99.90;;;;;;2081373;28;20068;-69
2021/12/21 03:32:30;;;;;;;27.33;16.35;;;-0.90;99.90;;;;;;2081521;28;20097;-69
2021/12/21 03:33:30;;;;;;;31.65;18.15;;;-0.90;99.90;;;;;;2085592;28;20017;-71
2021/12/21 03:34:31;;;;;;;27.20;16.70;;;-0.90;99.90;;;;;;2089222;28;20029;-68
2021/12/21 03:35:31;;;;;;;26.55;16.02;;;-0.90;99.90;;;;;;2089247;28;20027;-69
2021/12/21 03:36:33;;;;;;;29.30;16.75;;;-0.90;99.90;;;;;;2077325;28;20038;-69
2021/12/21 03:37:33;;;;;;;32.10;17.85;;;-0.90;99.90;;;;;;2081092;28;20028;-69
2021/12/21 03:38:35;;;;;;;27.75;16.00;;;-0.90;99.90;;;;;;2081095;28;20032;-69
2021/12/21 03:39:36;;;;;;;27.50;15.85;;;-0.90;99.90;;;;;;2081579;28;20025;-69
2021/12/21 03:40:36;;;;;;;30.10;16.88;;;-0.90;99.90;;;;;;2081789;28;20040;-68
2021/12/21 03:41:40;;;;;;;26.73;15.48;;;-0.90;99.90;;;;;;2080662;28;20421;-69
2021/12/21 03:42:41;;;;;;;27.92;16.85;;;-0.90;99.90;;;;;;2082056;28;20576;-69
2021/12/21 03:43:41;;;;;;;27.80;16.25;;;-0.90;99.90;;;;;;2080848;28;20400;-68
2021/12/21 03:44:42;;;;;;;27.13;16.08;;;-0.90;99.90;;;;;;2081490;28;20017;-68
2021/12/21 03:45:52;;;;;;;23.02;14.88;;;-0.90;99.90;;;;;;2081612;28;20096;-69
2021/12/21 03:46:55;;;;;;;28.98;16.52;;;-0.90;99.90;;;;;;2081409;28;20029;-69
2021/12/21 03:47:55;;;;;;;25.27;14.85;;;-0.90;99.90;;;;;;2081475;28;20040;-69
2021/12/21 03:48:56;;;;;;;25.05;14.43;;;-0.90;99.90;;;;;;2082008;28;20195;-69
2021/12/21 03:50:00;;;;;;;28.98;16.10;;;-0.90;99.90;;;;;;2081062;28;20037;-69
2021/12/21 03:51:01;;;;;;;22.40;14.00;;;-0.90;99.90;;;;;;2080910;28;20024;-69
2021/12/21 03:52:06;;;;;;;25.58;14.93;;;-0.90;99.90;;;;;;2081341;28;20109;-69
2021/12/21 03:53:07;;;;;;;25.63;15.82;;;-0.90;99.90;;;;;;2078174;28;20202;-68
2021/12/21 03:54:07;;;;;;;25.27;14.48;;;-0.90;99.90;;;;;;2072873;28;20073;-68
2021/12/21 03:55:08;;;;;;;24.33;14.93;;;-0.90;99.90;;;;;;2089212;28;20139;-68
2021/12/21 03:57:13;;;;;;;24.30;14.38;;;-0.90;99.90;;;;;;2090064;28;20021;-68
2021/12/21 03:58:14;;;;;;;23.88;13.98;;;-1.00;99.90;;;;;;2089673;28;20021;-68
2021/12/21 03:59:14;;;;;;;25.92;15.98;;;-0.90;99.90;;;;;;2075369;28;20025;-69
2021/12/21 04:00:16;;;;;;;22.08;14.90;;;-0.90;99.90;;;;;;2081099;28;20025;-69
2021/12/21 04:01:17;;;;;;;22.13;15.43;;;-1.00;99.90;;;;;;2080827;28;20100;-69
2021/12/21 04:02:19;;;;;;;22.27;15.30;;;-1.00;99.90;;;;;;2080098;28;20021;-69
2021/12/21 04:03:20;;;;;;;19.75;14.07;;;-1.00;99.90;;;;;;2096383;28;20484;-69
2021/12/21 04:04:22;;;;;;;23.35;14.85;;;-1.00;99.90;;;;;;2096460;28;20175;-68
2021/12/21 04:05:23;;;;;;;23.73;15.30;;;-1.00;99.90;;;;;;2089041;28;20040;-68
2021/12/21 04:06:24;;;;;;;25.35;16.23;;;-1.00;99.90;;;;;;2088620;28;20024;-68
2021/12/21 04:07:25;;;;;;;25.27;16.50;;;-1.00;99.90;;;;;;2088809;28;20167;-69
2021/12/21 04:08:26;;;;;;;22.88;15.43;;;-1.00;99.90;;;;;;2088612;28;20474;-69
2021/12/21 04:09:26;;;;;;;25.13;15.52;;;-1.00;99.90;;;;;;2088017;28;20095;-68
2021/12/21 04:10:27;;;;;;;21.55;14.00;;;-1.00;99.90;;;;;;2079614;28;20026;-69
2021/12/21 04:11:28;;;;;;;23.45;16.45;;;-1.00;99.90;;;;;;2081941;28;20057;-69
2021/12/21 04:12:28;;;;;;;23.17;14.60;;;-1.00;99.90;;;;;;2073076;28;20037;-68
2021/12/21 04:13:30;;;;;;;22.70;15.50;;;-1.00;99.90;;;;;;2078840;28;20041;-69
2021/12/21 04:14:33;;;;;;;21.92;14.43;;;-1.00;99.90;;;;;;2091853;28;20048;-69
2021/12/21 04:15:41;;;;;;;23.80;15.35;;;-1.00;99.90;;;;;;2079879;28;20018;-68
2021/12/21 04:16:42;;;;;;;24.45;15.90;;;-1.00;99.90;;;;;;2080036;28;20367;-69
2021/12/21 04:17:43;;;;;;;24.70;16.13;;;-1.00;99.90;;;;;;2088124;28;20028;-69
2021/12/21 04:18:43;;;;;;;25.05;16.75;;;-1.10;99.90;;;;;;2088418;28;20025;-69
2021/12/21 04:19:44;;;;;;;22.27;15.48;;;-1.10;99.90;;;;;;2085890;28;20614;-68
2021/12/21 04:20:45;;;;;;;24.80;15.40;;;-1.00;99.90;;;;;;2079663;28;20025;-68
2021/12/21 04:21:46;;;;;;;25.40;16.27;;;-1.10;99.90;;;;;;2079756;28;20103;-68
2021/12/21 04:22:46;;;;;;;23.38;15.30;;;-1.00;99.90;;;;;;2080083;28;20033;-68
2021/12/21 04:23:47;;;;;;;19.75;13.93;;;-1.00;99.90;;;;;;2083827;28;20527;-69
2021/12/21 04:24:48;;;;;;;23.75;15.40;;;-1.00;99.90;;;;;;2088266;28;20063;-69
2021/12/21 04:25:49;;;;;;;23.80;15.85;;;-1.00;99.90;;;;;;2088500;28;20493;-68
2021/12/21 04:26:49;;;;;;;23.90;15.55;;;-1.10;99.90;;;;;;2083783;28;20443;-68
2021/12/21 04:27:50;;;;;;;21.77;16.40;;;-1.10;99.90;;;;;;2071311;28;20041;-69
2021/12/21 04:28:50;;;;;;;21.70;15.90;;;-1.10;99.90;;;;;;2075122;28;20796;-69
2021/12/21 04:29:51;;;;;;;24.35;14.82;;;-1.00;99.90;;;;;;2081104;28;20056;-69
2021/12/21 04:30:52;;;;;;;23.65;16.20;;;-1.00;99.90;;;;;;2079808;28;20057;-69
2021/12/21 04:31:52;;;;;;;24.63;16.08;;;-1.10;99.90;;;;;;2079851;28;20018;-68
2021/12/21 04:32:53;;;;;;;26.00;16.98;;;-1.00;99.90;;;;;;2079553;28;20036;-69
2021/12/21 04:33:53;;;;;;;23.27;16.58;;;-1.00;99.90;;;;;;2079306;28;20365;-69
2021/12/21 04:34:54;;;;;;;24.75;17.00;;;-1.00;99.90;;;;;;2080416;28;20029;-69
2021/12/21 04:35:55;;;;;;;25.13;17.15;;;-1.00;99.90;;;;;;2080016;28;20465;-69
2021/12/21 04:36:55;;;;;;;24.08;16.92;;;-1.00;99.90;;;;;;2079958;28;20028;-69
2021/12/21 04:38:00;;;;;;;25.65;17.55;;;-1.00;99.90;;;;;;2079772;28;20025;-68
2021/12/21 04:39:03;;;;;;;23.13;15.93;;;-1.00;99.90;;;;;;2080273;28;20381;-69
2021/12/21 04:40:07;;;;;;;28.85;17.77;;;-1.00;99.90;;;;;;2080101;28;20021;-68
2021/12/21 04:41:14;;;;;;;25.55;17.83;;;-1.00;99.90;;;;;;2079873;28;20052;-68
2021/12/21 04:42:15;;;;;;;26.92;18.42;;;-1.00;99.90;;;;;;2079953;28;20531;-68
2021/12/21 04:43:16;;;;;;;26.73;17.88;;;-1.00;99.90;;;;;;2080141;28;20458;-68
2021/12/21 04:44:16;;;;;;;24.10;17.10;;;-1.00;99.90;;;;;;2079309;28;20037;-69
2021/12/21 04:45:17;;;;;;;29.20;17.98;;;-0.90;99.90;;;;;;2087341;28;20029;-69
2021/12/21 04:46:19;;;;;;;23.70;16.77;;;-0.90;99.90;;;;;;2088168;28;20393;-69
2021/12/21 04:47:19;;;;;;;31.48;18.42;;;-0.90;99.90;;;;;;2082433;28;20029;-68
2021/12/21 04:48:20;;;;;;;30.90;18.95;;;-0.90;99.90;;;;;;2079610;28;20032;-68
2021/12/21 04:49:21;;;;;;;26.67;17.92;;;-1.00;99.90;;;;;;2079688;28;20046;-68
2021/12/21 04:50:21;;;;;;;29.92;18.60;;;-0.90;99.90;;;;;;2079873;28;20533;-69
2021/12/21 04:51:22;;;;;;;29.27;19.23;;;-1.00;99.90;;;;;;2084122;28;20029;-69
2021/12/21 04:52:23;;;;;;;52.85;20.35;;;-0.90;99.90;;;;;;2087836;28;20035;-69
2021/12/21 04:53:24;;;;;;;30.60;19.33;;;-0.90;99.90;;;;;;2087106;28;20022;-68
2021/12/21 04:54:25;;;;;;;34.88;18.60;;;-0.90;99.90;;;;;;2083010;28;20550;-68
2021/12/21 04:55:25;;;;;;;32.92;19.30;;;-0.90;99.90;;;;;;2085546;28;20045;-69
2021/12/21 04:56:26;;;;;;;30.13;19.10;;;-0.90;99.90;;;;;;2085125;28;20518;-69
2021/12/21 04:57:26;;;;;;;31.20;20.08;;;-0.90;99.90;;;;;;2087973;28;20048;-69
2021/12/21 04:58:27;;;;;;;29.33;18.77;;;-0.90;99.90;;;;;;2079129;28;20104;-69
2021/12/21 04:59:28;;;;;;;34.97;18.85;;;-0.90;99.90;;;;;;2077567;28;20033;-69
2021/12/21 05:00:28;;;;;;;31.27;19.55;;;-0.90;99.90;;;;;;2079538;28;20401;-69
2021/12/21 05:01:29;;;;;;;33.45;18.77;;;-0.90;99.90;;;;;;2086959;28;20548;-69
2021/12/21 05:02:29;;;;;;;30.42;18.85;;;-0.90;99.90;;;;;;2088051;28;20558;-69
2021/12/21 05:03:30;;;;;;;30.90;19.92;;;-0.90;99.90;;;;;;2087548;28;20029;-68
2021/12/21 05:04:31;;;;;;;29.38;19.17;;;-0.90;99.90;;;;;;2087836;28;20107;-68
2021/12/21 05:05:31;;;;;;;29.15;18.50;;;-0.90;99.90;;;;;;2088125;28;20025;-69
2021/12/21 05:06:32;;;;;;;31.98;19.70;;;-0.90;99.90;;;;;;2088000;28;20477;-69
2021/12/21 05:07:36;;;;;;;28.92;18.73;;;-0.90;99.90;;;;;;2088198;28;20021;-68
2021/12/21 05:08:39;;;;;;;30.10;19.05;;;-0.90;99.90;;;;;;2085907;28;20086;-68
2021/12/21 05:09:42;;;;;;;29.50;19.02;;;-0.90;99.90;;;;;;2086985;28;20021;-69
2021/12/21 05:10:48;;;;;;;31.77;19.38;;;-0.90;99.90;;;;;;2080122;28;20378;-69
2021/12/21 05:11:49;;;;;;;35.55;19.13;;;-0.90;99.90;;;;;;2076157;28;20384;-69
2021/12/21 05:12:50;;;;;;;43.35;19.20;;;-0.80;99.90;;;;;;2075642;28;20044;-68
2021/12/21 05:13:50;;;;;;;28.27;18.70;;;-0.90;99.90;;;;;;2080830;28;20096;-68
2021/12/21 05:14:51;;;;;;;29.60;18.17;;;-0.90;99.90;;;;;;2075313;28;20026;-69
2021/12/21 05:15:51;;;;;;;29.83;19.42;;;-0.90;99.90;;;;;;2076467;28;20029;-69
2021/12/21 05:16:52;;;;;;;29.80;17.48;;;-0.80;99.90;;;;;;2079369;28;20033;-68
2021/12/21 05:17:53;;;;;;;30.10;19.08;;;-0.80;99.90;;;;;;2079653;28;20385;-69
2021/12/21 05:18:53;;;;;;;25.88;18.35;;;-0.80;99.90;;;;;;2078897;28;20017;-69
2021/12/21 05:19:54;;;;;;;28.48;17.80;;;-0.80;99.90;;;;;;2079216;28;20072;-69
2021/12/21 05:20:54;;;;;;;26.13;17.77;;;-0.80;99.90;;;;;;2078799;28;20045;-69
2021/12/21 05:21:55;;;;;;;31.17;18.73;;;-0.80;99.90;;;;;;2078980;28;20658;-68
2021/12/21 05:22:55;;;;;;;29.13;18.23;;;-0.80;99.90;;;;;;2079496;28;20068;-69
2021/12/21 05:23:56;;;;;;;32.35;18.17;;;-0.80;99.90;;;;;;2078473;28;20029;-69
2021/12/21 05:24:56;;;;;;;28.13;17.70;;;-0.80;99.90;;;;;;2079070;28;20029;-68
2021/12/21 05:25:57;;;;;;;30.40;18.73;;;-0.80;99.90;;;;;;2079895;28;20496;-68
2021/12/21 05:26:58;;;;;;;30.45;18.90;;;-0.80;99.90;;;;;;2078035;28;20392;-69
2021/12/21 05:27:58;;;;;;;26.52;17.17;;;-0.80;99.90;;;;;;2071407;28;20032;-68
2021/12/21 05:28:59;;;;;;;27.85;18.50;;;-0.80;99.90;;;;;;2082801;28;20032;-68
2021/12/21 05:30:00;;;;;;;33.05;17.60;;;-0.70;99.90;;;;;;2088075;28;20413;-68
2021/12/21 05:31:00;;;;;;;27.75;17.52;;;-0.70;99.90;;;;;;2088016;28;20447;-69
2021/12/21 05:32:01;;;;;;;32.95;18.98;;;-0.70;99.90;;;;;;2087803;28;20068;-68
2021/12/21 05:33:03;;;;;;;29.65;18.15;;;-0.80;99.90;;;;;;2087893;28;20107;-68
2021/12/21 05:34:03;;;;;;;27.48;18.08;;;-0.70;99.90;;;;;;2085032;28;20444;-69
2021/12/21 05:35:05;;;;;;;34.33;18.55;;;-0.70;99.90;;;;;;2081908;28;20017;-68
2021/12/21 05:36:06;;;;;;;31.75;18.00;;;-0.70;99.90;;;;;;2088062;28;20860;-68
2021/12/21 05:37:07;;;;;;;26.02;15.63;;;-0.70;99.90;;;;;;2079919;28;20401;-68
2021/12/21 05:38:09;;;;;;;24.95;16.88;;;-0.70;99.90;;;;;;2079176;28;20029;-68
2021/12/21 05:39:18;;;;;;;27.00;17.35;;;-0.70;99.90;;;;;;2080018;28;20033;-68
2021/12/21 05:40:19;;;;;;;32.33;17.45;;;-0.70;99.90;;;;;;2079435;28;20072;-68
2021/12/21 05:42:41;;;;;;;28.58;17.45;;;-0.70;99.90;;;;;;2075576;28;20025;-68
2021/12/21 05:43:41;;;;;;;26.50;16.25;;;-0.70;99.90;;;;;;2079001;28;20022;-69
2021/12/21 05:44:42;;;;;;;29.13;17.17;;;-0.70;99.90;;;;;;2082474;28;20028;-69
2021/12/21 05:45:43;;;;;;;28.85;17.80;;;-0.70;99.90;;;;;;2087986;28;20033;-68
2021/12/21 05:46:43;;;;;;;24.40;16.67;;;-0.70;99.90;;;;;;2087883;28;20047;-69
2021/12/21 05:47:44;;;;;;;25.73;16.67;;;-0.70;99.90;;;;;;2087922;28;20028;-69
2021/12/21 05:48:45;;;;;;;28.80;17.52;;;-0.70;99.90;;;;;;2087406;28;20017;-69
2021/12/21 05:49:45;;;;;;;27.95;17.90;;;-0.70;99.90;;;;;;2088040;28;20013;-69
2021/12/21 05:50:46;;;;;;;24.88;16.05;;;-0.70;99.90;;;;;;2081961;28;20026;-69
2021/12/21 05:51:47;;;;;;;26.05;16.77;;;-0.70;99.90;;;;;;2079683;28;20030;-68
2021/12/21 05:52:48;;;;;;;27.00;17.95;;;-0.70;99.90;;;;;;2079163;28;20722;-68